createdAt,value
2019-02-26T00:00:42.288Z,19.30
2019-02-26T00:03:11.211Z,19.30
2019-02-26T00:05:41.336Z,19.20
2019-02-26T00:08:11.456Z,19.20
2019-02-26T00:10:41.575Z,19.20
2019-02-26T00:13:11.691Z,19.20
2019-02-26T00:15:43.264Z,19.20
2019-02-26T00:18:14.419Z,19.10
2019-02-26T00:20:45.568Z,19.20
2019-02-26T00:23:15.685Z,19.20
2019-02-26T00:25:45.805Z,19.20
2019-02-26T00:28:17.681Z,19.20
2019-02-26T00:30:47.820Z,19.10
2019-02-26T00:33:21.482Z,19.10
2019-02-26T00:35:50.259Z,19.00
2019-02-26T00:38:20.393Z,19.00
2019-02-26T00:40:50.527Z,19.00
2019-02-26T00:43:23.241Z,19.00
2019-02-26T00:45:53.346Z,19.00
2019-02-26T00:48:24.283Z,19.00
2019-02-26T00:50:56.469Z,19.00
2019-02-26T00:53:28.346Z,19.00
2019-02-26T00:55:59.390Z,19.00
2019-02-26T00:58:32.096Z,19.00
2019-02-26T01:01:03.323Z,19.00
2019-02-26T01:03:33.439Z,18.90
2019-02-26T01:06:04.127Z,18.90
2019-02-26T01:08:37.490Z,18.90
2019-02-26T01:11:08.323Z,19.00
2019-02-26T01:13:38.696Z,18.90
2019-02-26T01:16:08.842Z,18.90
2019-02-26T01:18:38.969Z,18.90
2019-02-26T01:21:09.092Z,18.90
2019-02-26T01:23:39.209Z,18.90
2019-02-26T01:26:10.084Z,18.90
2019-02-26T01:28:44.083Z,18.80
2019-02-26T01:31:12.970Z,18.80
2019-02-26T01:33:43.117Z,18.90
2019-02-26T01:36:16.145Z,18.80
2019-02-26T01:38:47.071Z,18.80
2019-02-26T01:41:20.337Z,18.80
2019-02-26T01:43:49.783Z,18.80
2019-02-26T01:46:19.910Z,18.80
2019-02-26T01:48:50.015Z,18.80
2019-02-26T01:51:21.889Z,18.70
2019-02-26T01:53:53.664Z,18.70
2019-02-26T01:56:23.777Z,18.70
2019-02-26T01:58:56.531Z,18.70
2019-02-26T02:01:26.178Z,18.70
2019-02-26T02:03:56.504Z,18.70
2019-02-26T02:06:26.634Z,18.70
2019-02-26T02:08:56.754Z,18.70
2019-02-26T02:11:30.633Z,18.70
2019-02-26T02:14:01.850Z,18.60
2019-02-26T02:16:31.455Z,18.60
2019-02-26T02:19:02.398Z,18.60
2019-02-26T02:21:35.520Z,18.60
2019-02-26T02:24:10.725Z,18.60
2019-02-26T02:26:41.096Z,18.60
2019-02-26T02:29:12.640Z,18.60
2019-02-26T02:31:42.672Z,18.50
2019-02-26T02:34:12.837Z,18.50
2019-02-26T02:36:42.951Z,18.50
2019-02-26T02:39:15.477Z,18.50
2019-02-26T02:41:47.976Z,18.50
2019-02-26T02:44:17.786Z,18.50
2019-02-26T02:46:48.567Z,18.50
2019-02-26T02:49:18.732Z,18.50
2019-02-26T02:51:48.934Z,18.50
2019-02-26T02:54:21.035Z,18.40
2019-02-26T02:56:50.873Z,18.50
2019-02-26T02:59:21.967Z,18.40
2019-02-26T03:01:54.813Z,18.40
2019-02-26T03:04:27.870Z,18.40
2019-02-26T03:06:58.040Z,18.40
2019-02-26T03:09:27.667Z,18.40
2019-02-26T03:11:57.879Z,18.40
2019-02-26T03:14:29.996Z,18.40
2019-02-26T03:16:59.823Z,18.30
2019-02-26T03:19:32.687Z,18.30
2019-02-26T03:22:01.762Z,18.30
2019-02-26T03:24:33.833Z,18.30
2019-02-26T03:27:03.732Z,18.30
2019-02-26T03:29:33.868Z,18.30
2019-02-26T03:32:03.981Z,18.30
2019-02-26T03:34:34.103Z,18.30
2019-02-26T03:37:06.253Z,18.30
2019-02-26T03:39:36.035Z,18.30
2019-02-26T03:42:08.058Z,18.20
2019-02-26T03:44:38.043Z,18.20
2019-02-26T03:47:08.161Z,18.20
2019-02-26T03:49:41.739Z,18.20
2019-02-26T03:52:10.107Z,18.20
2019-02-26T03:54:42.764Z,18.20
2019-02-26T03:57:14.101Z,18.20
2019-02-26T03:59:43.870Z,18.20
2019-02-26T04:02:15.505Z,18.20
2019-02-26T04:04:49.053Z,18.20
2019-02-26T04:07:17.667Z,18.20
2019-02-26T04:09:52.417Z,18.20
2019-02-26T04:12:20.915Z,18.10
2019-02-26T04:14:51.072Z,18.10
2019-02-26T04:17:25.437Z,18.10
2019-02-26T04:19:53.008Z,18.10
2019-02-26T04:22:29.062Z,18.10
2019-02-26T04:25:09.152Z,18.10
2019-02-26T04:28:02.590Z,18.10
2019-02-26T04:30:58.662Z,18.10
2019-02-26T04:33:55.942Z,18.00
2019-02-26T04:36:34.445Z,18.10
2019-02-26T04:39:45.100Z,18.00
2019-02-26T04:42:40.927Z,18.00
2019-02-26T04:45:53.635Z,18.00
2019-02-26T04:48:32.527Z,18.00
2019-02-26T04:51:03.251Z,18.00
2019-02-26T04:53:35.901Z,17.90
2019-02-26T04:56:11.724Z,17.90
2019-02-26T04:58:39.899Z,17.90
2019-02-26T05:01:10.849Z,17.90
2019-02-26T05:03:41.681Z,17.90
2019-02-26T05:06:11.817Z,17.90
2019-02-26T05:08:42.869Z,17.90
2019-02-26T05:11:17.452Z,17.90
2019-02-26T05:13:44.967Z,17.90
2019-02-26T05:16:15.088Z,17.90
2019-02-26T05:18:47.046Z,17.90
2019-02-26T05:21:17.029Z,17.90
2019-02-26T05:23:49.520Z,17.90
2019-02-26T05:26:20.796Z,18.00
2019-02-26T05:28:51.561Z,18.00
2019-02-26T05:31:21.719Z,18.00
2019-02-26T05:33:54.239Z,18.00
2019-02-26T05:36:23.708Z,18.00
2019-02-26T05:38:54.621Z,18.00
2019-02-26T05:41:25.653Z,18.00
2019-02-26T05:43:58.268Z,18.10
2019-02-26T05:46:29.519Z,18.10
2019-02-26T05:48:59.390Z,18.10
2019-02-26T05:51:32.034Z,18.20
2019-02-26T05:54:05.218Z,18.20
2019-02-26T05:56:37.001Z,18.20
2019-02-26T05:59:07.459Z,18.30
2019-02-26T06:01:37.907Z,18.30
2019-02-26T06:04:10.080Z,18.30
2019-02-26T06:06:39.926Z,18.30
2019-02-26T06:09:10.036Z,18.30
2019-02-26T06:11:42.841Z,18.40
2019-02-26T06:14:12.631Z,18.40
2019-02-26T06:16:46.200Z,18.40
2019-02-26T06:19:18.329Z,18.40
2019-02-26T06:21:49.738Z,18.40
2019-02-26T06:24:24.390Z,18.40
2019-02-26T06:26:52.221Z,18.50
2019-02-26T06:29:24.518Z,18.50
2019-02-26T06:31:54.276Z,18.50
2019-02-26T06:34:24.398Z,18.50
2019-02-26T06:36:59.416Z,18.50
2019-02-26T06:39:31.698Z,18.60
2019-02-26T06:42:02.983Z,18.60
2019-02-26T06:44:33.187Z,18.60
2019-02-26T06:47:04.784Z,18.60
2019-02-26T06:49:35.146Z,18.60
2019-02-26T06:52:05.990Z,18.60
2019-02-26T06:54:37.214Z,18.60
2019-02-26T06:57:07.479Z,18.70
2019-02-26T06:59:37.676Z,18.70
2019-02-26T07:02:08.793Z,18.70
2019-02-26T07:04:39.609Z,18.70
2019-02-26T07:07:13.776Z,18.70
2019-02-26T07:09:43.750Z,18.70
2019-02-26T07:12:14.596Z,18.70
2019-02-26T07:14:46.441Z,18.80
2019-02-26T07:17:22.678Z,18.80
2019-02-26T07:19:55.121Z,18.80
2019-02-26T07:22:24.620Z,18.80
2019-02-26T07:24:54.755Z,18.80
2019-02-26T07:27:26.407Z,18.80
2019-02-26T07:29:56.680Z,18.80
2019-02-26T07:32:26.811Z,18.80
2019-02-26T07:34:58.136Z,18.90
2019-02-26T07:37:29.214Z,18.90
2019-02-26T07:40:15.174Z,19.00
2019-02-26T07:42:46.609Z,19.00
2019-02-26T07:45:22.858Z,19.00
2019-02-26T07:47:55.975Z,19.00
2019-02-26T07:50:25.444Z,19.10
2019-02-26T07:52:57.479Z,19.10
2019-02-26T07:55:27.743Z,19.10
2019-02-26T07:57:58.603Z,19.10
2019-02-26T08:00:30.505Z,19.10
2019-02-26T08:03:05.086Z,19.10
2019-02-26T08:05:35.206Z,19.10
2019-02-26T08:08:05.336Z,19.10
2019-02-26T08:10:39.421Z,19.20
2019-02-26T08:13:08.022Z,19.20
2019-02-26T08:15:39.899Z,19.30
2019-02-26T08:18:11.137Z,19.30
2019-02-26T08:20:42.251Z,19.30
2019-02-26T08:23:14.793Z,19.40
2019-02-26T08:25:45.228Z,19.50
2019-02-26T08:28:20.847Z,19.60
2019-02-26T08:30:53.006Z,19.60
2019-02-26T08:33:29.093Z,19.60
2019-02-26T08:36:00.257Z,19.70
2019-02-26T08:38:30.399Z,19.70
2019-02-26T08:41:00.516Z,19.80
2019-02-26T08:43:31.631Z,19.80
2019-02-26T08:46:01.752Z,19.80
2019-02-26T08:48:46.162Z,19.90
2019-02-26T08:51:16.950Z,19.90
2019-02-26T08:53:49.516Z,19.90
2019-02-26T08:56:23.638Z,19.90
2019-02-26T08:58:51.784Z,19.90
2019-02-26T09:01:21.991Z,19.90
2019-02-26T09:03:53.772Z,20.00
2019-02-26T09:06:24.096Z,20.00
2019-02-26T09:08:55.164Z,20.00
2019-02-26T09:11:28.676Z,20.00
2019-02-26T09:14:02.169Z,20.00
2019-02-26T09:16:32.778Z,20.00
2019-02-26T09:19:03.143Z,20.00
2019-02-26T09:21:34.651Z,20.10
2019-02-26T09:24:07.636Z,20.10
2019-02-26T09:26:37.027Z,20.10
2019-02-26T09:29:07.186Z,20.10
2019-02-26T09:31:37.307Z,20.10
2019-02-26T09:34:07.478Z,20.10
2019-02-26T09:36:37.627Z,20.10
2019-02-26T09:39:08.725Z,20.10
2019-02-26T09:41:40.312Z,20.10
2019-02-26T09:44:11.763Z,20.10
2019-02-26T09:46:43.898Z,20.20
2019-02-26T09:49:13.759Z,20.20
2019-02-26T09:51:43.924Z,20.20
2019-02-26T09:54:15.271Z,20.10
2019-02-26T09:56:45.924Z,20.10
2019-02-26T09:59:16.078Z,20.10
2019-02-26T10:01:46.208Z,20.10
2019-02-26T10:04:17.306Z,20.20
2019-02-26T10:06:48.177Z,20.10
2019-02-26T10:09:20.624Z,20.20
2019-02-26T10:11:51.602Z,20.20
2019-02-26T10:14:23.831Z,20.20
2019-02-26T10:16:55.202Z,20.20
2019-02-26T10:19:25.979Z,20.20
2019-02-26T10:21:57.292Z,20.20
2019-02-26T10:24:30.254Z,20.20
2019-02-26T10:27:03.014Z,20.20
2019-02-26T10:29:36.636Z,20.20
2019-02-26T10:32:04.975Z,20.20
2019-02-26T10:34:35.095Z,20.20
2019-02-26T10:37:06.980Z,20.20
2019-02-26T10:39:37.350Z,20.20
2019-02-26T10:42:07.421Z,20.20
2019-02-26T10:44:43.749Z,20.20
2019-02-26T10:47:14.084Z,20.20
2019-02-26T10:49:45.034Z,20.20
2019-02-26T10:52:18.771Z,20.20
2019-02-26T10:54:48.177Z,20.30
2019-02-26T10:57:18.408Z,20.30
2019-02-26T10:59:48.507Z,20.30
2019-02-26T11:02:20.741Z,20.30
2019-02-26T11:04:53.540Z,20.30
2019-02-26T11:07:22.322Z,20.30
2019-02-26T11:09:53.614Z,20.30
2019-02-26T11:12:27.382Z,20.30
2019-02-26T11:14:56.843Z,20.30
2019-02-26T11:17:28.932Z,20.30
2019-02-26T11:20:01.165Z,20.30
2019-02-26T11:22:31.701Z,20.30
2019-02-26T11:25:01.827Z,20.30
2019-02-26T11:27:31.999Z,20.40
2019-02-26T11:30:04.981Z,20.30
2019-02-26T11:33:02.350Z,20.40
2019-02-26T11:35:30.833Z,20.40
2019-02-26T11:38:00.961Z,20.40
2019-02-26T11:40:31.097Z,20.40
2019-02-26T11:43:11.183Z,20.40
2019-02-26T11:45:35.151Z,20.40
2019-02-26T11:48:08.172Z,20.40
2019-02-26T11:50:37.671Z,20.50
2019-02-26T11:53:09.889Z,20.50
2019-02-26T11:55:39.657Z,20.50
2019-02-26T11:58:12.596Z,20.50
2019-02-26T12:00:45.467Z,20.50
2019-02-26T12:03:15.018Z,20.60
2019-02-26T12:05:45.219Z,20.50
2019-02-26T12:08:17.384Z,20.40
2019-02-26T12:10:47.222Z,20.30
2019-02-26T12:13:19.699Z,20.30
2019-02-26T12:15:49.199Z,20.40
2019-02-26T12:18:20.023Z,20.40
2019-02-26T12:20:54.255Z,20.40
2019-02-26T12:23:24.394Z,20.40
2019-02-26T12:25:55.513Z,20.40
2019-02-26T12:28:28.502Z,20.40
2019-02-26T12:31:07.038Z,20.40
2019-02-26T12:33:36.825Z,20.40
2019-02-26T12:36:08.013Z,20.40
2019-02-26T12:38:38.773Z,20.40
2019-02-26T12:41:12.218Z,20.50
2019-02-26T12:43:43.373Z,20.50
2019-02-26T12:46:12.595Z,20.50
2019-02-26T12:48:44.916Z,20.50
2019-02-26T12:51:14.683Z,20.50
2019-02-26T12:53:49.150Z,20.60
2019-02-26T12:56:16.742Z,20.60
2019-02-26T12:58:48.593Z,20.70
2019-02-26T13:01:18.782Z,20.70
2019-02-26T13:03:53.887Z,20.80
2019-02-26T13:06:22.832Z,20.80
2019-02-26T13:08:52.553Z,20.90
2019-02-26T13:11:24.923Z,20.90
2019-02-26T13:13:54.512Z,20.90
2019-02-26T13:16:24.660Z,20.90
2019-02-26T13:18:58.526Z,21.00
2019-02-26T13:21:26.648Z,20.90
2019-02-26T13:24:03.579Z,21.00
2019-02-26T13:26:34.618Z,21.00
2019-02-26T13:29:00.760Z,21.10
2019-02-26T13:31:35.906Z,21.10
2019-02-26T13:34:02.897Z,21.20
2019-02-26T13:36:36.377Z,21.20
2019-02-26T13:39:05.911Z,21.20
2019-02-26T13:41:39.042Z,21.30
2019-02-26T13:44:09.530Z,21.30
2019-02-26T13:46:39.687Z,21.30
2019-02-26T13:49:09.811Z,21.30
2019-02-26T13:51:39.923Z,21.40
2019-02-26T13:54:10.126Z,21.40
2019-02-26T13:56:40.235Z,21.40
2019-02-26T13:59:10.544Z,21.50
2019-02-26T14:01:40.856Z,21.50
2019-02-26T14:04:10.978Z,21.50
2019-02-26T14:06:42.905Z,21.60
2019-02-26T14:09:13.046Z,21.60
2019-02-26T14:11:43.196Z,21.60
2019-02-26T14:14:13.323Z,21.60
2019-02-26T14:16:43.878Z,21.60
2019-02-26T14:19:14.012Z,21.60
2019-02-26T14:21:44.130Z,21.60
2019-02-26T14:24:14.274Z,21.70
2019-02-26T14:26:45.494Z,21.70
2019-02-26T14:29:17.647Z,21.70
2019-02-26T14:31:47.804Z,21.70
2019-02-26T14:34:17.936Z,21.70
2019-02-26T14:36:55.995Z,21.80
2019-02-26T14:39:27.162Z,21.70
2019-02-26T14:41:57.279Z,21.70
2019-02-26T14:44:27.428Z,21.80
2019-02-26T14:46:57.558Z,21.80
2019-02-26T14:49:27.688Z,21.80
2019-02-26T14:51:58.787Z,21.80
2019-02-26T14:54:28.918Z,21.80
2019-02-26T14:56:59.044Z,21.80
2019-02-26T14:59:29.355Z,21.90
2019-02-26T15:01:59.549Z,21.90
2019-02-26T15:04:29.676Z,21.80
2019-02-26T15:06:59.853Z,21.90
2019-02-26T15:09:29.984Z,22.00
2019-02-26T15:12:00.124Z,22.00
2019-02-26T15:14:30.257Z,22.10
2019-02-26T15:17:00.409Z,22.10
2019-02-26T15:19:30.535Z,22.10
2019-02-26T15:22:00.654Z,22.10
2019-02-26T15:24:30.777Z,22.20
2019-02-26T15:27:00.902Z,22.10
2019-02-26T15:29:31.032Z,22.10
2019-02-26T15:32:01.164Z,22.10
2019-02-26T15:34:31.301Z,22.10
2019-02-26T15:37:02.480Z,22.10
2019-02-26T15:39:32.611Z,22.10
2019-02-26T15:42:02.744Z,22.10
2019-02-26T15:44:32.881Z,22.00
2019-02-26T15:47:03.091Z,22.00
2019-02-26T15:49:33.194Z,22.00
2019-02-26T15:52:03.324Z,22.00
2019-02-26T15:54:33.739Z,22.00
2019-02-26T15:57:03.934Z,21.90
2019-02-26T15:59:35.628Z,21.70
2019-02-26T16:02:05.876Z,21.50
2019-02-26T16:04:37.076Z,21.50
2019-02-26T16:07:07.227Z,21.60
2019-02-26T16:09:37.366Z,21.60
2019-02-26T16:12:07.483Z,21.50
2019-02-26T16:14:37.594Z,21.40
2019-02-26T16:17:07.902Z,21.30
2019-02-26T16:19:38.891Z,21.30
2019-02-26T16:22:09.019Z,21.20
2019-02-26T16:24:39.327Z,21.10
2019-02-26T16:27:11.145Z,21.00
2019-02-26T16:29:41.323Z,21.00
2019-02-26T16:32:11.451Z,20.90
2019-02-26T16:34:41.587Z,20.80
2019-02-26T16:37:11.861Z,20.80
2019-02-26T16:39:43.095Z,20.70
2019-02-26T16:42:14.866Z,20.70
2019-02-26T16:44:45.032Z,20.60
2019-02-26T16:47:21.109Z,20.60
2019-02-26T16:49:55.759Z,20.50
2019-02-26T16:52:27.760Z,20.40
2019-02-26T16:55:01.568Z,20.40
2019-02-26T16:57:31.797Z,20.40
2019-02-26T17:00:02.381Z,20.30
2019-02-26T17:02:36.394Z,20.20
2019-02-26T17:05:14.267Z,20.10
2019-02-26T17:07:41.530Z,20.10
2019-02-26T17:10:23.442Z,20.00
2019-02-26T17:12:55.551Z,19.90
2019-02-26T17:15:32.500Z,19.90
2019-02-26T17:18:02.652Z,19.80
2019-02-26T17:20:32.794Z,19.70
2019-02-26T17:23:02.905Z,19.90
2019-02-26T17:25:36.927Z,20.20
2019-02-26T17:28:07.036Z,20.40
2019-02-26T17:30:38.865Z,20.40
2019-02-26T17:33:11.377Z,20.50
2019-02-26T17:35:40.839Z,20.50
2019-02-26T17:38:12.817Z,20.60
2019-02-26T17:40:42.781Z,20.60
2019-02-26T17:43:12.903Z,20.70
2019-02-26T17:45:43.094Z,20.70
2019-02-26T17:48:13.226Z,20.70
2019-02-26T17:50:45.902Z,20.70
2019-02-26T17:53:18.350Z,20.70
2019-02-26T17:55:48.549Z,20.70
2019-02-26T17:58:18.710Z,20.60
2019-02-26T18:00:53.122Z,20.60
2019-02-26T18:03:25.703Z,20.70
2019-02-26T18:05:55.118Z,20.60
2019-02-26T18:08:25.197Z,20.70
2019-02-26T18:10:55.401Z,20.60
2019-02-26T18:13:25.518Z,20.60
2019-02-26T18:15:56.842Z,20.70
2019-02-26T18:18:27.175Z,20.60
2019-02-26T18:20:57.302Z,20.60
2019-02-26T18:23:27.455Z,20.60
2019-02-26T18:25:57.684Z,20.60
2019-02-26T18:28:27.800Z,20.60
2019-02-26T18:30:57.955Z,20.60
2019-02-26T18:33:28.067Z,20.60
2019-02-26T18:36:01.768Z,20.60
2019-02-26T18:38:31.887Z,20.60
2019-02-26T18:41:02.043Z,20.60
2019-02-26T18:43:32.168Z,20.60
2019-02-26T18:46:02.309Z,20.60
2019-02-26T18:48:32.431Z,20.60
2019-02-26T18:51:03.053Z,20.60
2019-02-26T18:53:33.241Z,20.60
2019-02-26T18:56:04.162Z,20.60
2019-02-26T18:58:34.976Z,20.60
2019-02-26T19:01:06.102Z,20.60
2019-02-26T19:03:36.293Z,20.60
2019-02-26T19:06:07.348Z,20.60
2019-02-26T19:08:40.381Z,20.60
2019-02-26T19:11:16.490Z,20.60
2019-02-26T19:13:42.371Z,20.50
2019-02-26T19:16:12.544Z,20.50
2019-02-26T19:18:42.752Z,20.50
2019-02-26T19:21:12.925Z,20.50
2019-02-26T19:23:43.191Z,20.40
2019-02-26T19:26:16.175Z,20.40
2019-02-26T19:28:46.376Z,20.40
2019-02-26T19:31:19.205Z,20.40
2019-02-26T19:33:49.325Z,20.40
2019-02-26T19:36:21.061Z,20.40
2019-02-26T19:38:51.287Z,20.30
2019-02-26T19:41:23.042Z,20.30
2019-02-26T19:43:53.302Z,20.30
2019-02-26T19:46:23.459Z,20.30
2019-02-26T19:48:53.635Z,20.30
2019-02-26T19:51:25.515Z,20.30
2019-02-26T19:53:55.709Z,20.20
2019-02-26T19:56:25.870Z,20.20
2019-02-26T19:58:58.285Z,20.20
2019-02-26T20:01:28.567Z,20.20
2019-02-26T20:03:58.750Z,20.20
2019-02-26T20:06:28.919Z,20.20
2019-02-26T20:09:00.745Z,20.20
2019-02-26T20:11:32.539Z,20.20
2019-02-26T20:14:04.913Z,20.10
2019-02-26T20:16:35.536Z,20.10
2019-02-26T20:19:05.653Z,20.10
2019-02-26T20:21:35.780Z,20.10
2019-02-26T20:24:05.898Z,20.10
2019-02-26T20:26:36.016Z,20.10
2019-02-26T20:29:07.876Z,20.10
2019-02-26T20:31:39.144Z,20.10
2019-02-26T20:34:09.365Z,20.10
2019-02-26T20:36:39.519Z,20.10
2019-02-26T20:39:09.806Z,20.00
2019-02-26T20:41:40.488Z,20.00
2019-02-26T20:44:10.845Z,20.00
2019-02-26T20:46:40.943Z,20.00
2019-02-26T20:49:12.254Z,20.00
2019-02-26T20:51:43.048Z,20.00
2019-02-26T20:54:13.315Z,20.00
2019-02-26T20:56:44.848Z,20.00
2019-02-26T20:59:17.816Z,20.00
2019-02-26T21:01:49.556Z,19.90
2019-02-26T21:04:19.863Z,20.00
2019-02-26T21:06:50.922Z,19.90
2019-02-26T21:09:21.794Z,19.90
2019-02-26T21:11:53.645Z,19.90
2019-02-26T21:14:23.885Z,19.90
2019-02-26T21:16:54.995Z,19.90
2019-02-26T21:19:25.199Z,19.90
2019-02-26T21:21:55.289Z,19.90
2019-02-26T21:24:25.433Z,19.90
2019-02-26T21:26:55.642Z,19.90
2019-02-26T21:29:25.808Z,19.90
2019-02-26T21:31:55.939Z,19.90
2019-02-26T21:34:26.061Z,19.90
2019-02-26T21:36:57.841Z,19.90
2019-02-26T21:39:29.036Z,19.80
2019-02-26T21:41:59.147Z,19.80
2019-02-26T21:44:29.296Z,19.80
2019-02-26T21:46:59.407Z,19.80
2019-02-26T21:49:29.551Z,19.80
2019-02-26T21:51:59.667Z,19.80
2019-02-26T21:54:29.798Z,19.80
2019-02-26T21:56:59.938Z,19.80
2019-02-26T21:59:32.580Z,19.80
2019-02-26T22:02:01.921Z,19.80
2019-02-26T22:04:33.129Z,19.70
2019-02-26T22:07:04.233Z,19.70
2019-02-26T22:09:34.367Z,19.70
2019-02-26T22:12:04.488Z,19.70
2019-02-26T22:14:36.934Z,19.70
2019-02-26T22:17:06.456Z,19.70
2019-02-26T22:19:39.735Z,19.70
2019-02-26T22:22:08.410Z,19.70
2019-02-26T22:24:40.557Z,19.70
2019-02-26T22:27:10.418Z,19.60
2019-02-26T22:29:40.537Z,19.60
2019-02-26T22:32:10.655Z,19.60
2019-02-26T22:34:40.802Z,19.60
2019-02-26T22:37:10.939Z,19.60
2019-02-26T22:39:41.073Z,19.60
2019-02-26T22:42:11.194Z,19.60
2019-02-26T22:44:41.326Z,19.60
2019-02-26T22:47:11.448Z,19.50
2019-02-26T22:49:41.586Z,19.50
2019-02-26T22:52:11.717Z,19.50
2019-02-26T22:54:43.466Z,19.50
2019-02-26T22:57:13.884Z,19.50
2019-02-26T22:59:44.019Z,19.50
2019-02-26T23:02:14.134Z,19.40
2019-02-26T23:04:44.431Z,19.40
2019-02-26T23:07:14.572Z,19.40
2019-02-26T23:09:45.121Z,19.40
2019-02-26T23:12:15.816Z,19.40
2019-02-26T23:14:46.019Z,19.40
2019-02-26T23:17:16.281Z,19.40
2019-02-26T23:19:46.372Z,19.40
2019-02-26T23:22:16.504Z,19.40
2019-02-26T23:24:46.664Z,19.30
2019-02-26T23:27:16.849Z,19.30
2019-02-26T23:29:47.056Z,19.30
2019-02-26T23:32:17.173Z,19.30
2019-02-26T23:35:03.640Z,19.30
2019-02-26T23:37:35.333Z,19.30
2019-02-26T23:40:09.103Z,19.30
2019-02-26T23:42:39.681Z,19.20
2019-02-26T23:45:13.225Z,19.20
2019-02-26T23:47:43.710Z,19.20
2019-02-26T23:50:13.915Z,19.20
2019-02-26T23:52:44.026Z,19.20
2019-02-26T23:55:14.172Z,19.20
2019-02-26T23:57:44.347Z,19.20
